Time;durP1;ratioP1;P1;durP2;ratioP2;P2;SDS_P1;SDS_P2;PMS_P1;PMS_P2;Temp;Humidity;BMP_temperature;BMP_pressure;BME280_temperature;BME280_humidity;BME280_pressure;Samples;Min_cycle;Max_cycle;Signal;HPM_P1;HPM_P2
2022/08/12 00:43:33;;;;;;;3.60;1.92;;;;;;;18.73;66.46;101464.44;5034076;28;20040;-77
2022/08/12 00:48:43;;;;;;;4.75;2.05;;;;;;;18.77;66.06;101471.38;5033980;28;20040;-76
2022/08/12 00:51:09;;;;;;;3.85;1.77;;;;;;;18.81;65.98;101475.66;5033572;28;20044;-76
2022/08/12 00:53:36;;;;;;;3.22;1.90;;;;;;;18.80;65.97;101476.59;5033351;28;20029;-76
2022/08/12 00:56:04;;;;;;;2.65;1.80;;;;;;;18.89;65.39;101475.38;5032345;28;20035;-76
2022/08/12 00:58:30;;;;;;;2.83;1.90;;;;;;;18.94;65.45;101474.25;5032087;28;20022;-76
2022/08/12 01:01:07;;;;;;;3.10;1.80;;;;;;;18.95;65.16;101473.34;5032165;28;20032;-76
2022/08/12 01:11:50;;;;;;;4.47;1.83;;;;;;;18.86;65.09;101472.81;5032707;28;20044;-76
2022/08/12 01:14:24;;;;;;;2.85;1.67;;;;;;;18.92;65.06;101470.78;5032022;28;20021;-74
2022/08/12 01:16:54;;;;;;;3.45;2.03;;;;;;;18.87;65.30;101467.44;5031781;28;20028;-74
2022/08/12 01:19:22;;;;;;;3.03;1.90;;;;;;;18.87;65.26;101461.22;5031662;28;20029;-75
2022/08/12 01:22:21;;;;;;;2.83;1.52;;;;;;;18.88;65.52;101465.66;5032008;28;20034;-75
2022/08/12 01:25:03;;;;;;;3.03;1.70;;;;;;;18.89;65.23;101470.91;5031912;28;20021;-74
2022/08/12 01:27:32;;;;;;;2.55;1.30;;;;;;;18.87;65.26;101458.56;5016010;28;20448;-75
2022/08/12 01:30:01;;;;;;;4.90;1.60;;;;;;;18.87;65.14;101451.47;5033117;28;20169;-75
2022/08/12 01:32:28;;;;;;;2.45;1.60;;;;;;;18.88;65.06;101455.88;5032966;28;20539;-75
2022/08/12 01:35:05;;;;;;;3.97;1.77;;;;;;;18.80;65.58;101460.63;5015565;28;20037;-75
2022/08/12 01:37:36;;;;;;;7.55;2.60;;;;;;;18.73;65.87;101459.13;5031828;28;20373;-75
2022/08/12 01:40:03;;;;;;;4.40;1.92;;;;;;;18.70;66.01;101464.56;5033303;28;20049;-74
2022/08/12 01:42:49;;;;;;;3.83;1.75;;;;;;;18.59;67.03;101459.63;5035592;28;20032;-75
2022/08/12 01:45:16;;;;;;;3.28;1.60;;;;;;;18.66;66.22;101458.44;5036836;28;20104;-76
2022/08/12 01:48:28;;;;;;;3.47;2.00;;;;;;;18.69;66.68;101454.81;5035597;28;20052;-76
2022/08/12 01:51:39;;;;;;;2.60;1.40;;;;;;;18.73;66.23;101458.25;5036826;28;20029;-76
2022/08/12 01:54:09;;;;;;;2.10;1.70;;;;;;;18.69;66.07;101458.34;5004703;28;20389;-75
2022/08/12 01:56:56;;;;;;;2.83;2.15;;;;;;;18.66;66.57;101458.44;5035202;28;20464;-75
2022/08/12 01:59:45;;;;;;;4.22;1.80;;;;;;;18.64;66.65;101455.00;5036534;28;20064;-75
2022/08/12 02:02:26;;;;;;;2.80;1.77;;;;;;;18.64;66.19;101459.44;5035250;28;20080;-74
2022/08/12 02:11:21;;;;;;;2.00;1.27;;;;;;;18.51;67.27;101466.13;5036354;28;20103;-74
2022/08/12 02:13:55;;;;;;;3.47;1.70;;;;;;;18.48;67.31;101468.94;5036149;28;20100;-74
2022/08/12 02:16:49;;;;;;;4.60;1.88;;;;;;;18.51;67.06;101467.03;5036065;28;20044;-74
2022/08/12 02:19:41;;;;;;;4.68;1.90;;;;;;;18.37;68.28;101467.53;5036250;28;20377;-74
2022/08/12 02:22:26;;;;;;;2.75;2.03;;;;;;;18.34;67.98;101470.28;5036131;28;20025;-75
2022/08/12 02:24:55;;;;;;;4.47;2.30;;;;;;;18.30;67.87;101455.38;5036042;28;20358;-74
2022/08/12 02:27:23;;;;;;;2.80;2.20;;;;;;;18.33;67.83;101467.69;5034827;28;20029;-75
2022/08/12 02:29:49;;;;;;;3.78;2.05;;;;;;;18.27;67.94;101466.13;5034885;28;20091;-74
2022/08/12 02:32:15;;;;;;;4.32;1.83;;;;;;;18.36;67.52;101465.81;5035837;28;20037;-75
2022/08/12 02:34:43;;;;;;;2.30;1.73;;;;;;;18.30;67.86;101470.47;5018082;28;20029;-74
2022/08/12 02:37:14;;;;;;;4.05;2.00;;;;;;;18.33;67.74;101465.03;5034526;28;20049;-75
2022/08/12 02:39:45;;;;;;;2.50;1.67;;;;;;;18.33;67.54;101460.59;5035708;28;20045;-74
2022/08/12 02:42:14;;;;;;;3.53;2.10;;;;;;;18.38;67.16;101463.94;5034608;28;20461;-75
2022/08/12 02:44:43;;;;;;;2.50;1.98;;;;;;;18.37;67.31;101462.22;5035606;28;20041;-75
2022/08/12 02:47:11;;;;;;;4.00;1.92;;;;;;;18.44;66.72;101460.19;5034331;28;20014;-75
2022/08/12 02:49:57;;;;;;;4.93;2.05;;;;;;;18.36;67.31;101471.13;5034339;28;20100;-75
2022/08/12 02:52:25;;;;;;;2.88;1.60;;;;;;;18.34;66.73;101459.66;5035325;28;20098;-75
2022/08/12 02:55:01;;;;;;;3.00;1.95;;;;;;;18.36;66.77;101462.28;5034152;28;20083;-75
2022/08/12 02:57:29;;;;;;;3.97;2.17;;;;;;;18.24;67.42;101468.03;5034218;28;20072;-75
2022/08/12 02:59:55;;;;;;;4.13;1.90;;;;;;;18.17;67.69;101459.41;5035355;28;20108;-75
2022/08/12 03:02:26;;;;;;;2.28;1.60;;;;;;;18.32;67.05;101464.19;5001342;28;20029;-75
2022/08/12 03:04:56;;;;;;;2.88;1.80;;;;;;;18.37;66.75;101462.22;5034141;28;20029;-75
2022/08/12 03:07:27;;;;;;;3.92;2.28;;;;;;;18.32;67.05;101464.19;5033953;28;20028;-75
2022/08/12 03:10:08;;;;;;;2.92;1.67;;;;;;;18.33;67.21;101470.38;5034102;28;20025;-75
2022/08/12 03:12:44;;;;;;;3.30;1.88;;;;;;;18.33;66.99;101463.25;5035339;28;20033;-76
2022/08/12 03:15:16;;;;;;;2.58;1.83;;;;;;;18.26;67.18;101463.53;5035153;28;20021;-75
2022/08/12 03:18:03;;;;;;;3.33;1.90;;;;;;;18.37;66.97;101462.22;5033971;28;20050;-75
2022/08/12 03:20:32;;;;;;;3.58;1.60;;;;;;;18.27;66.89;101460.78;5033803;28;20499;-77
2022/08/12 03:23:01;;;;;;;8.18;1.83;;;;;;;18.35;66.81;101464.06;5033766;28;20025;-75
2022/08/12 03:25:30;;;;;;;7.68;2.30;;;;;;;18.45;66.59;101460.13;5034735;28;20025;-74
2022/08/12 03:27:57;;;;;;;6.50;2.80;;;;;;;18.49;66.36;101465.34;5035176;28;20060;-74
2022/08/12 03:30:30;;;;;;;5.75;1.92;;;;;;;18.47;66.66;101465.38;5034667;28;20025;-74
2022/08/12 03:32:56;;;;;;;3.05;1.83;;;;;;;18.50;66.44;101461.75;5034817;28;20037;-75
2022/08/12 03:35:29;;;;;;;5.78;2.10;;;;;;;18.58;66.07;101470.31;5034699;28;20053;-75
2022/08/12 03:38:04;;;;;;;3.85;2.22;;;;;;;18.58;65.95;101467.66;5034764;28;20026;-76
2022/08/12 04:00:18;;;;;;;3.45;2.10;;;;;;;18.61;66.21;101464.88;5034591;28;20056;-76
2022/08/12 04:02:45;;;;;;;3.83;2.53;;;;;;;18.63;66.44;101463.00;5032535;28;20120;-76
2022/08/12 04:05:12;;;;;;;3.88;2.00;;;;;;;18.68;66.05;101461.94;5033940;28;20172;-75
2022/08/12 04:07:39;;;;;;;2.42;1.90;;;;;;;18.75;65.74;101457.28;5033806;28;20029;-75
2022/08/12 04:10:06;;;;;;;3.85;2.60;;;;;;;18.79;65.63;101463.31;5034044;28;20083;-75
2022/08/12 04:15:19;;;;;;;5.00;2.20;;;;;;;18.81;65.54;101459.69;5034414;28;20067;-76
2022/08/12 04:17:46;;;;;;;3.85;2.00;;;;;;;18.86;65.16;101460.38;5033855;28;20037;-76
2022/08/12 04:20:18;;;;;;;2.88;1.85;;;;;;;18.89;65.14;101460.25;5032435;28;20029;-76
2022/08/12 04:22:44;;;;;;;9.07;2.20;;;;;;;19.01;64.86;101458.91;5032461;28;20033;-77
2022/08/12 04:25:11;;;;;;;6.55;2.40;;;;;;;19.08;64.70;101460.41;5032442;28;20037;-76
2022/08/12 04:27:38;;;;;;;3.63;2.15;;;;;;;19.04;64.83;101456.13;5032485;28;20040;-74
2022/08/12 04:30:06;;;;;;;5.05;2.20;;;;;;;19.08;64.81;101456.88;5033586;28;20036;-73
2022/08/12 04:32:35;;;;;;;4.15;2.20;;;;;;;19.04;64.74;101460.59;5032536;28;20025;-74
2022/08/12 04:35:02;;;;;;;3.53;2.22;;;;;;;19.12;64.60;101455.81;5032534;28;20523;-77
2022/08/12 04:37:29;;;;;;;3.25;1.73;;;;;;;19.28;63.99;101459.59;5032229;28;20032;-77
2022/08/12 04:39:55;;;;;;;3.25;1.90;;;;;;;19.41;63.67;101450.16;5033406;28;20053;-77
2022/08/12 04:42:22;;;;;;;3.05;1.77;;;;;;;19.51;63.18;101463.09;5033576;28;20535;-78
2022/08/12 04:44:47;;;;;;;2.30;1.80;;;;;;;19.65;62.99;101469.63;5032380;28;20079;-78
2022/08/12 04:47:15;;;;;;;5.18;2.45;;;;;;;19.74;62.92;101471.03;5049074;28;20038;-78
2022/08/12 04:49:45;;;;;;;7.78;2.72;;;;;;;19.75;62.97;101474.56;5033543;28;20369;-78
2022/08/12 04:52:11;;;;;;;5.50;2.60;;;;;;;19.84;62.71;101475.03;5032552;28;20469;-79
2022/08/12 04:54:37;;;;;;;3.08;1.63;;;;;;;19.92;62.49;101469.38;5033795;28;20080;-78
2022/08/12 04:57:02;;;;;;;2.75;1.90;;;;;;;20.03;62.25;101471.56;5032223;28;20025;-79
2022/08/12 04:59:30;;;;;;;3.78;2.28;;;;;;;20.15;62.13;101468.38;5033860;28;20029;-77
2022/08/12 05:01:56;;;;;;;4.82;1.90;;;;;;;20.25;61.92;101464.34;5031988;28;20021;-77
2022/08/12 05:04:26;;;;;;;5.75;2.17;;;;;;;20.36;61.71;101467.41;5033666;28;20033;-77
2022/08/12 05:06:51;;;;;;;2.65;1.70;;;;;;;20.52;61.46;101467.63;5033667;28;20025;-78
2022/08/12 05:09:20;;;;;;;3.33;1.67;;;;;;;20.65;60.96;101468.78;5033573;28;20029;-78
2022/08/12 05:11:48;;;;;;;4.25;1.45;;;;;;;20.88;60.23;101478.38;5033382;28;20025;-77
2022/08/12 05:14:15;;;;;;;3.22;1.88;;;;;;;21.02;60.26;101476.84;5033959;28;20167;-78
2022/08/12 05:16:43;;;;;;;3.75;2.00;;;;;;;21.09;59.90;101478.28;5037323;28;20029;-78
2022/08/12 05:19:09;;;;;;;2.53;1.77;;;;;;;21.19;59.61;101482.28;5035891;28;20124;-78
2022/08/12 05:21:34;;;;;;;3.20;1.58;;;;;;;21.27;59.17;101474.75;5037380;28;20492;-77
2022/08/12 05:24:00;;;;;;;2.75;1.67;;;;;;;21.31;59.22;101481.66;5019775;28;20033;-78
2022/08/12 05:26:28;;;;;;;3.03;1.67;;;;;;;21.42;58.83;101483.81;5037209;28;20037;-78
2022/08/12 05:28:53;;;;;;;9.30;2.15;;;;;;;21.51;58.53;101485.19;5035842;28;20362;-79
2022/08/12 05:31:20;;;;;;;2.38;1.65;;;;;;;21.63;58.32;101487.25;5037143;28;20039;-77
2022/08/12 05:33:46;;;;;;;1.88;1.20;;;;;;;21.76;57.99;101480.34;5035810;28;20050;-79
2022/08/12 05:36:16;;;;;;;4.53;1.42;;;;;;;21.87;57.78;101486.00;5036124;28;20040;-73
2022/08/12 05:38:56;;;;;;;2.78;1.30;;;;;;;21.91;57.63;101486.72;5036926;28;20468;-73
2022/08/12 05:41:28;;;;;;;2.42;1.35;;;;;;;21.93;57.42;101475.91;5035740;28;20095;-73
2022/08/12 05:44:02;;;;;;;2.70;1.40;;;;;;;22.08;57.08;101486.69;5036901;28;20025;-73
2022/08/12 05:46:29;;;;;;;3.67;1.25;;;;;;;22.11;56.82;101486.53;5036823;28;20029;-73
2022/08/12 05:48:55;;;;;;;4.05;1.42;;;;;;;22.22;56.82;101478.00;5036846;28;20033;-73
2022/08/12 05:51:26;;;;;;;3.25;1.67;;;;;;;22.40;56.34;101477.94;5036741;28;20029;-72
2022/08/12 05:53:55;;;;;;;1.83;1.40;;;;;;;22.50;56.09;101484.50;5036797;28;20029;-73
2022/08/12 05:56:29;;;;;;;2.22;1.23;;;;;;;22.55;55.86;101472.63;5036577;28;20539;-73
2022/08/12 05:58:56;;;;;;;3.05;1.50;;;;;;;22.65;55.70;101475.66;5036541;28;20057;-73
2022/08/12 06:01:24;;;;;;;3.63;1.60;;;;;;;22.74;55.42;101475.16;5036514;28;20100;-73
2022/08/12 06:03:51;;;;;;;6.57;1.55;;;;;;;22.86;55.43;101476.28;5036560;28;20033;-73
2022/08/12 06:06:17;;;;;;;2.78;1.40;;;;;;;23.05;55.15;101471.63;5036271;28;20029;-72
2022/08/12 06:08:47;;;;;;;7.18;1.40;;;;;;;23.10;54.78;101474.09;5034938;28;20032;-73
2022/08/12 06:11:14;;;;;;;2.70;1.10;;;;;;;23.22;54.65;101467.13;5035125;28;20025;-73
2022/08/12 06:13:42;;;;;;;2.20;1.20;;;;;;;23.35;54.13;101474.41;5035070;28;20079;-73
2022/08/12 06:16:13;;;;;;;2.17;1.40;;;;;;;23.45;53.63;101474.72;5036250;28;20032;-73
2022/08/12 06:18:40;;;;;;;2.38;1.40;;;;;;;23.58;53.25;101473.06;5034711;28;20037;-73
2022/08/12 06:21:11;;;;;;;1.98;1.30;;;;;;;23.59;52.73;101476.59;5034801;28;20580;-73
2022/08/12 06:23:37;;;;;;;3.17;1.30;;;;;;;23.60;52.66;101468.47;5034904;28;20036;-73
2022/08/12 06:26:06;;;;;;;4.32;1.23;;;;;;;23.64;52.52;101473.66;5033878;28;20108;-73
2022/08/12 06:28:32;;;;;;;3.10;1.20;;;;;;;23.77;52.22;101470.16;5018786;28;20033;-73
2022/08/12 06:30:58;;;;;;;3.08;1.20;;;;;;;23.87;52.14;101469.63;5034795;28;20025;-73
2022/08/12 06:33:24;;;;;;;2.42;1.20;;;;;;;23.97;51.74;101471.66;5002058;28;20045;-73
2022/08/12 06:35:51;;;;;;;3.83;1.25;;;;;;;23.97;51.68;101470.78;5034627;28;20381;-73
2022/08/12 06:38:23;;;;;;;3.42;1.30;;;;;;;24.12;51.29;101469.00;5035834;28;20030;-73
2022/08/12 06:43:37;;;;;;;4.53;2.00;;;;;;;24.23;50.71;101466.53;5036349;28;20037;-73
2022/08/12 06:46:03;;;;;;;4.30;1.70;;;;;;;24.40;50.50;101473.56;5035829;28;20022;-73
2022/08/12 06:48:29;;;;;;;3.03;1.30;;;;;;;24.49;50.00;101472.97;5034484;28;20477;-73
2022/08/12 06:50:55;;;;;;;2.72;1.30;;;;;;;24.63;49.91;101470.28;5017888;28;20041;-73
2022/08/12 06:53:22;;;;;;;4.03;1.70;;;;;;;24.77;49.50;101477.47;5034409;28;20500;-73
2022/08/12 06:55:53;;;;;;;4.57;1.95;;;;;;;24.84;49.68;101470.75;5035445;28;20025;-72
2022/08/12 06:58:19;;;;;;;6.25;2.90;;;;;;;24.82;49.29;101475.38;5034115;28;20033;-73
2022/08/12 07:00:49;;;;;;;6.07;2.58;;;;;;;24.92;49.22;101473.78;5035278;28;20465;-72
2022/08/12 07:03:26;;;;;;;8.95;2.72;;;;;;;24.99;48.86;101469.75;5035281;28;20029;-72
2022/08/12 07:05:53;;;;;;;16.02;4.93;;;;;;;25.09;48.55;101472.72;5033100;28;20124;-72
2022/08/12 07:08:18;;;;;;;9.48;4.22;;;;;;;25.19;48.17;101473.84;5035192;28;20021;-73
2022/08/12 07:10:56;;;;;;;6.60;2.47;;;;;;;25.34;47.48;101468.44;5035255;28;20036;-73
2022/08/12 07:13:23;;;;;;;3.97;1.85;;;;;;;25.43;47.73;101475.88;5034031;28;20089;-72
2022/08/12 07:15:54;;;;;;;4.30;1.88;;;;;;;25.59;47.50;101471.19;5035092;28;20031;-72
2022/08/12 07:18:26;;;;;;;5.28;1.98;;;;;;;25.67;47.14;101470.69;5017962;28;20457;-72
2022/08/12 07:20:52;;;;;;;3.92;2.15;;;;;;;25.75;46.44;101465.63;5017790;28;20033;-72
2022/08/12 07:23:17;;;;;;;4.97;2.25;;;;;;;25.75;46.51;101466.50;5033642;28;20032;-74
2022/08/12 07:25:44;;;;;;;5.10;1.90;;;;;;;25.85;46.74;101468.59;5017013;28;20025;-74
2022/08/12 07:28:14;;;;;;;3.80;1.73;;;;;;;25.99;46.30;101468.50;5034015;28;20032;-74
2022/08/12 07:30:41;;;;;;;3.70;1.75;;;;;;;26.12;46.19;101461.28;5033839;28;20044;-74
2022/08/12 07:33:09;;;;;;;3.40;1.67;;;;;;;26.24;45.90;101467.66;5017275;28;20026;-74
2022/08/12 07:35:49;;;;;;;2.65;1.40;;;;;;;26.33;45.31;101464.28;5016920;28;20088;-74
2022/08/12 07:38:30;;;;;;;2.33;1.30;;;;;;;26.33;44.72;101472.38;5033168;28;20022;-74
2022/08/12 07:40:55;;;;;;;3.58;1.23;;;;;;;26.40;45.50;101462.91;5033317;28;20053;-74
2022/08/12 07:43:21;;;;;;;3.28;1.15;;;;;;;26.46;44.90;101473.28;5034631;28;20024;-74
2022/08/12 07:45:48;;;;;;;8.65;2.17;;;;;;;26.39;44.59;101460.31;5033218;28;20033;-73
2022/08/12 07:48:14;;;;;;;3.55;1.60;;;;;;;26.46;44.39;101461.66;5034344;28;20088;-74
2022/08/12 07:50:40;;;;;;;4.25;1.83;;;;;;;26.66;44.18;101468.31;5033099;28;20025;-74
2022/08/12 07:53:05;;;;;;;5.80;2.00;;;;;;;26.78;43.96;101467.41;5034405;28;20033;-74
2022/08/12 07:55:31;;;;;;;4.38;1.75;;;;;;;26.87;44.32;101471.25;5016653;28;20029;-74
2022/08/12 07:57:58;;;;;;;3.13;1.50;;;;;;;26.95;44.55;101469.72;5016578;28;20030;-74
2022/08/12 08:00:33;;;;;;;4.78;1.60;;;;;;;27.02;44.81;101460.22;5034269;28;20026;-74
2022/08/12 08:02:58;;;;;;;4.75;2.05;;;;;;;27.06;43.38;101462.69;5032800;28;20029;-74
2022/08/12 08:05:36;;;;;;;3.35;1.45;;;;;;;27.02;42.24;101468.31;5034253;28;20028;-74
2022/08/12 08:08:10;;;;;;;2.97;0.98;;;;;;;27.09;42.39;101471.41;5032945;28;20021;-74
2022/08/12 08:10:36;;;;;;;1.92;0.90;;;;;;;27.15;42.23;101464.72;5017609;28;20029;-74
2022/08/12 08:13:03;;;;;;;2.72;0.70;;;;;;;27.21;41.69;101465.16;5016312;28;20029;-74
2022/08/12 08:15:30;;;;;;;1.05;0.80;;;;;;;27.21;41.17;101462.44;5016794;28;20033;-74
2022/08/12 08:18:02;;;;;;;2.50;1.00;;;;;;;27.31;41.76;101459.91;5033814;28;20030;-74
2022/08/12 08:20:32;;;;;;;1.88;0.95;;;;;;;27.38;41.36;101454.91;5032618;28;20029;-74
2022/08/12 08:23:00;;;;;;;1.75;0.88;;;;;;;27.36;40.55;101457.72;5034012;28;20025;-74
2022/08/12 08:25:32;;;;;;;1.02;0.70;;;;;;;27.33;40.04;101451.69;5033724;28;20061;-73
2022/08/12 08:28:03;;;;;;;1.33;0.70;;;;;;;27.38;39.03;101460.31;5032818;28;20036;-74
2022/08/12 08:30:31;;;;;;;1.77;0.77;;;;;;;27.44;39.14;101455.28;5033719;28;20037;-74
2022/08/12 08:32:57;;;;;;;1.30;0.68;;;;;;;27.47;39.59;101449.66;5032583;28;20029;-74
2022/08/12 08:35:26;;;;;;;1.52;0.75;;;;;;;27.65;38.79;101455.53;5032734;28;20446;-74
2022/08/12 08:37:51;;;;;;;2.13;0.93;;;;;;;27.82;38.23;101453.41;5016052;28;20030;-73
2022/08/12 08:43:03;;;;;;;2.40;0.80;;;;;;;27.79;37.16;101448.22;5032643;28;20040;-74
2022/08/12 08:45:29;;;;;;;2.65;0.98;;;;;;;28.05;37.07;101451.56;5033669;28;20029;-74
2022/08/12 08:47:55;;;;;;;5.57;0.90;;;;;;;28.14;36.49;101454.44;5032455;28;20113;-77
2022/08/12 08:50:23;;;;;;;2.45;0.82;;;;;;;28.26;36.33;101452.59;4999131;28;20076;-73
2022/08/12 08:52:48;;;;;;;2.85;0.90;;;;;;;28.35;36.41;101442.91;5015715;28;20033;-74
2022/08/12 08:55:15;;;;;;;1.85;0.90;;;;;;;28.39;36.79;101447.09;5032491;28;20039;-74
2022/08/12 08:57:50;;;;;;;1.70;0.80;;;;;;;28.27;35.45;101439.94;5032157;28;20026;-73
2022/08/12 09:00:19;;;;;;;1.92;0.98;;;;;;;28.11;36.07;101446.56;5032524;28;20033;-74
2022/08/12 09:02:49;;;;;;;3.10;0.80;;;;;;;28.39;36.29;101449.81;5033454;28;20032;-74
2022/08/12 09:05:16;;;;;;;2.15;1.05;;;;;;;28.46;35.91;101440.22;5033701;28;20033;-74
2022/08/12 09:07:49;;;;;;;2.17;0.98;;;;;;;28.58;35.61;101447.34;5015639;28;20029;-74
2022/08/12 09:10:18;;;;;;;1.77;0.80;;;;;;;28.59;35.22;101453.63;5031745;28;20031;-75
2022/08/12 09:15:34;;;;;;;3.08;0.77;;;;;;;28.09;36.84;101451.25;5032418;28;20117;-74
2022/08/12 09:18:04;;;;;;;3.67;0.90;;;;;;;28.05;36.41;101451.56;5015583;28;20469;-74
2022/08/12 09:20:32;;;;;;;2.67;1.00;;;;;;;28.04;36.81;101447.16;5033221;28;20128;-75
2022/08/12 09:23:00;;;;;;;2.70;0.82;;;;;;;28.02;36.88;101452.69;5033437;28;20192;-75
2022/08/12 09:25:27;;;;;;;3.03;0.68;;;;;;;28.13;36.52;101443.75;5033127;28;20202;-76
2022/08/12 09:27:53;;;;;;;2.33;0.90;;;;;;;28.22;37.43;101446.56;5031978;28;20024;-75
2022/08/12 09:30:20;;;;;;;3.78;0.80;;;;;;;28.30;36.40;101447.81;5033171;28;20017;-77
2022/08/12 09:32:49;;;;;;;1.45;0.80;;;;;;;28.25;36.42;101442.78;5031959;28;20087;-76
2022/08/12 09:35:18;;;;;;;2.88;1.10;;;;;;;28.34;36.29;101443.88;5031954;28;20116;-77
2022/08/12 09:37:43;;;;;;;6.57;1.42;;;;;;;28.36;36.32;101441.91;5033233;28;20052;-76
2022/08/12 09:40:09;;;;;;;4.20;1.20;;;;;;;28.35;35.97;101441.06;5015662;28;20053;-77
2022/08/12 09:45:22;;;;;;;0.98;0.68;;;;;;;28.55;36.14;101449.44;5033472;28;20036;-75
2022/08/12 09:47:55;;;;;;;2.53;1.10;;;;;;;29.18;34.14;101443.31;5031748;28;20084;-75
2022/08/12 09:50:22;;;;;;;3.78;1.13;;;;;;;29.39;34.52;101439.81;5031904;28;20083;-75
